Time;durP1;ratioP1;P1;durP2;ratioP2;P2;SDS_P1;SDS_P2;PMS_P1;PMS_P2;Temp;Humidity;BMP_temperature;BMP_pressure;BME280_temperature;BME280_humidity;BME280_pressure;Samples;Min_cycle;Max_cycle;Signal;HPM_P1;HPM_P2
2023/10/31 00:00:11;;;;;;;0.40;0.10;;;12.40;99.90;;;;;;4918197;29;20461;-77
2023/10/31 00:02:36;;;;;;;2.47;0.20;;;12.40;99.90;;;;;;4917747;29;20029;-78
2023/10/31 00:05:03;;;;;;;1.65;0.10;;;12.30;99.90;;;;;;4917538;29;20024;-78
2023/10/31 00:07:29;;;;;;;2.33;0.20;;;12.20;99.90;;;;;;4917386;29;20035;-78
2023/10/31 00:09:55;;;;;;;1.52;0.22;;;12.20;99.90;;;;;;4917618;29;20477;-78
2023/10/31 00:12:20;;;;;;;1.27;0.28;;;12.10;99.90;;;;;;4918113;29;20047;-77
2023/10/31 00:14:46;;;;;;;2.17;0.28;;;12.10;99.90;;;;;;4917405;29;20078;-77
2023/10/31 00:17:11;;;;;;;1.17;0.20;;;12.00;99.90;;;;;;4917557;29;20036;-77
2023/10/31 00:19:37;;;;;;;2.00;0.40;;;12.00;99.90;;;;;;4917786;29;20107;-76
2023/10/31 00:22:03;;;;;;;1.17;0.35;;;12.00;99.90;;;;;;4905149;29;20088;-77
2023/10/31 00:24:29;;;;;;;2.08;0.70;;;12.10;99.90;;;;;;4898551;29;20024;-77
2023/10/31 00:26:54;;;;;;;4.05;0.40;;;12.00;99.90;;;;;;4898388;29;20439;-77
2023/10/31 00:29:20;;;;;;;1.52;0.30;;;12.10;99.90;;;;;;4899151;29;20048;-77
2023/10/31 00:31:46;;;;;;;1.00;0.25;;;12.10;99.90;;;;;;4898188;29;20032;-77
2023/10/31 00:34:11;;;;;;;1.27;0.30;;;12.10;99.90;;;;;;4882183;29;20032;-78
2023/10/31 00:36:38;;;;;;;2.00;0.38;;;12.00;99.90;;;;;;4898795;29;20128;-77
2023/10/31 00:39:03;;;;;;;0.95;0.20;;;12.10;99.90;;;;;;4898247;29;20068;-78
2023/10/31 00:41:29;;;;;;;1.17;0.28;;;12.10;99.90;;;;;;4881478;29;20071;-79
2023/10/31 00:43:54;;;;;;;2.00;0.50;;;12.10;99.90;;;;;;4898510;29;20088;-78
2023/10/31 00:46:20;;;;;;;2.33;0.47;;;12.10;99.90;;;;;;4897918;29;20052;-79
2023/10/31 00:48:46;;;;;;;2.40;0.40;;;12.00;99.90;;;;;;4882095;29;20042;-78
2023/10/31 00:51:12;;;;;;;3.75;0.30;;;12.00;99.90;;;;;;4898172;29;20047;-77
2023/10/31 00:53:38;;;;;;;3.20;0.43;;;11.90;99.90;;;;;;4898784;29;20107;-77
2023/10/31 00:56:04;;;;;;;2.22;0.32;;;11.90;99.90;;;;;;4898542;29;20099;-77
2023/10/31 00:58:29;;;;;;;3.10;0.60;;;11.90;99.90;;;;;;4898482;29;20091;-78
2023/10/31 01:00:55;;;;;;;1.73;0.50;;;11.90;99.90;;;;;;4898130;29;20028;-78
2023/10/31 01:03:21;;;;;;;10.07;1.42;;;11.90;99.90;;;;;;4897804;29;20036;-78
2023/10/31 01:05:46;;;;;;;4.63;0.90;;;11.90;99.90;;;;;;4881129;29;20033;-79
2023/10/31 01:08:12;;;;;;;3.70;1.02;;;11.90;99.90;;;;;;4881373;29;20149;-77
2023/10/31 01:10:37;;;;;;;3.88;1.33;;;11.80;99.90;;;;;;4881165;29;20025;-78
2023/10/31 01:13:03;;;;;;;5.15;1.10;;;11.80;99.90;;;;;;4882923;29;20036;-78
2023/10/31 01:15:29;;;;;;;5.22;1.40;;;11.80;99.90;;;;;;4885772;29;20033;-78
2023/10/31 01:17:54;;;;;;;4.25;1.90;;;11.80;99.90;;;;;;4884973;29;20037;-77
2023/10/31 01:20:20;;;;;;;6.10;2.45;;;11.80;99.90;;;;;;4885313;29;20040;-77
2023/10/31 01:22:46;;;;;;;5.78;2.63;;;11.80;99.90;;;;;;4901826;29;20064;-78
2023/10/31 01:25:11;;;;;;;5.45;2.47;;;11.80;99.90;;;;;;4901938;29;20056;-79
2023/10/31 01:27:37;;;;;;;7.28;3.42;;;11.80;99.90;;;;;;4901546;29;20052;-78
2023/10/31 01:30:03;;;;;;;7.18;4.40;;;11.80;99.90;;;;;;4901533;29;20040;-79
2023/10/31 01:32:29;;;;;;;10.45;5.85;;;11.80;99.90;;;;;;4884676;29;20063;-78
2023/10/31 01:34:54;;;;;;;10.93;5.60;;;11.80;99.90;;;;;;4901485;29;20060;-77
2023/10/31 01:37:21;;;;;;;11.73;6.80;;;11.80;99.90;;;;;;4901166;29;20119;-77
2023/10/31 01:39:47;;;;;;;14.88;7.78;;;11.70;99.90;;;;;;4901609;29;20422;-77
2023/10/31 01:42:17;;;;;;;13.23;8.05;;;11.80;99.90;;;;;;4901092;29;20064;-77
2023/10/31 01:44:43;;;;;;;12.73;8.77;;;11.80;99.90;;;;;;4884550;29;20043;-77
2023/10/31 01:47:09;;;;;;;11.82;8.32;;;11.80;99.90;;;;;;4884501;29;20032;-77
2023/10/31 01:49:36;;;;;;;15.85;9.13;;;11.80;99.90;;;;;;4885204;29;20080;-77
2023/10/31 01:52:03;;;;;;;14.48;9.50;;;11.80;99.90;;;;;;4884298;29;20036;-78
2023/10/31 01:54:29;;;;;;;14.07;9.25;;;11.80;99.90;;;;;;4901616;29;20367;-78
2023/10/31 01:56:57;;;;;;;13.88;9.20;;;11.80;99.90;;;;;;4901121;29;20039;-77
2023/10/31 01:59:25;;;;;;;14.55;10.32;;;11.80;99.90;;;;;;4900999;29;20120;-78
2023/10/31 02:01:50;;;;;;;12.73;9.18;;;11.80;99.90;;;;;;4901020;29;20027;-78
2023/10/31 02:04:16;;;;;;;14.30;9.68;;;11.80;99.90;;;;;;4900802;29;20041;-77
2023/10/31 02:06:42;;;;;;;11.60;9.45;;;11.80;99.90;;;;;;4884281;29;20422;-77
2023/10/31 02:09:07;;;;;;;16.05;11.05;;;11.90;99.90;;;;;;4901284;29;20041;-78
2023/10/31 02:11:33;;;;;;;17.20;11.65;;;11.90;99.90;;;;;;4900995;29;20037;-77
2023/10/31 02:13:59;;;;;;;18.90;11.38;;;11.90;99.90;;;;;;4884466;29;20033;-78
2023/10/31 02:16:25;;;;;;;17.15;11.90;;;11.90;99.90;;;;;;4900833;29;20437;-78
2023/10/31 02:18:51;;;;;;;20.60;11.35;;;11.90;99.90;;;;;;4901273;29;20363;-78
2023/10/31 02:21:19;;;;;;;20.35;12.70;;;11.90;99.90;;;;;;4900311;29;20556;-78
2023/10/31 02:24:02;;;;;;;18.75;11.48;;;11.90;99.90;;;;;;4900677;29;20028;-77
2023/10/31 02:26:33;;;;;;;17.65;11.77;;;12.00;99.90;;;;;;4900181;29;20532;-77
2023/10/31 02:28:59;;;;;;;17.35;11.63;;;12.00;99.90;;;;;;4900190;29;20036;-75
2023/10/31 02:31:25;;;;;;;20.50;10.77;;;12.00;99.90;;;;;;4900224;29;20055;-76
2023/10/31 02:33:51;;;;;;;15.38;10.60;;;12.00;99.90;;;;;;4900513;29;20036;-77
2023/10/31 02:36:17;;;;;;;14.63;10.07;;;12.00;99.90;;;;;;4900462;29;20131;-78
2023/10/31 02:38:43;;;;;;;15.88;9.80;;;12.00;99.90;;;;;;4901110;29;20033;-77
2023/10/31 02:41:09;;;;;;;15.57;8.55;;;12.00;99.90;;;;;;4900760;29;20521;-76
2023/10/31 02:43:34;;;;;;;12.88;8.68;;;12.00;99.90;;;;;;4883482;29;20063;-77
2023/10/31 02:46:00;;;;;;;15.57;8.70;;;12.00;99.90;;;;;;4900176;29;20366;-77
2023/10/31 02:48:26;;;;;;;14.82;8.27;;;12.00;99.90;;;;;;4883762;29;20032;-77
2023/10/31 02:50:52;;;;;;;13.85;8.00;;;12.10;99.90;;;;;;4900459;29;20033;-77
2023/10/31 02:53:18;;;;;;;14.52;8.57;;;12.10;99.90;;;;;;4883173;29;20040;-77
2023/10/31 02:55:44;;;;;;;14.02;8.77;;;12.10;99.90;;;;;;4900078;29;20100;-77
2023/10/31 02:58:10;;;;;;;17.13;10.32;;;12.10;99.90;;;;;;4883374;29;20168;-76
2023/10/31 03:00:36;;;;;;;17.15;10.25;;;12.10;99.90;;;;;;4900288;29;20029;-78
2023/10/31 03:03:02;;;;;;;18.02;10.95;;;12.10;99.90;;;;;;4899726;29;20035;-77
2023/10/31 03:05:28;;;;;;;15.88;11.25;;;12.10;99.90;;;;;;4900155;29;20033;-78
2023/10/31 03:07:53;;;;;;;14.68;10.82;;;12.10;99.90;;;;;;4900399;29;20369;-78
2023/10/31 03:10:22;;;;;;;17.90;10.82;;;12.10;99.90;;;;;;4883474;29;20412;-78
2023/10/31 03:12:48;;;;;;;15.82;10.65;;;12.10;99.90;;;;;;4882976;29;20176;-78
2023/10/31 03:15:14;;;;;;;17.63;10.45;;;12.10;99.90;;;;;;4899837;29;20056;-77
2023/10/31 03:17:39;;;;;;;16.80;10.77;;;12.10;99.90;;;;;;4899674;29;20051;-77
2023/10/31 03:20:05;;;;;;;13.43;10.80;;;12.10;99.90;;;;;;4882979;29;20151;-77
2023/10/31 03:22:31;;;;;;;15.02;10.27;;;12.10;99.90;;;;;;4900144;29;20072;-78
2023/10/31 03:24:57;;;;;;;16.23;11.13;;;12.10;99.90;;;;;;4882871;29;20082;-78
2023/10/31 03:27:22;;;;;;;16.67;11.45;;;12.10;99.90;;;;;;4899431;29;20359;-78
2023/10/31 03:29:48;;;;;;;16.02;12.45;;;12.00;99.90;;;;;;4899235;29;20052;-78
2023/10/31 03:32:15;;;;;;;15.45;12.23;;;12.00;99.90;;;;;;4899691;29;20359;-78
2023/10/31 03:34:41;;;;;;;17.73;12.50;;;12.10;99.90;;;;;;4899671;29;20036;-78
2023/10/31 03:37:07;;;;;;;16.50;12.40;;;12.00;99.90;;;;;;4898635;29;20041;-78
2023/10/31 03:39:32;;;;;;;17.20;12.75;;;12.00;99.90;;;;;;4882440;29;20386;-78
2023/10/31 03:41:58;;;;;;;17.20;13.07;;;12.00;99.90;;;;;;4899098;29;20120;-78
2023/10/31 03:44:24;;;;;;;18.80;11.70;;;11.90;99.90;;;;;;4882201;29;20509;-78
2023/10/31 03:46:49;;;;;;;14.73;11.68;;;12.00;99.90;;;;;;4882556;29;20049;-78
2023/10/31 03:49:15;;;;;;;16.15;11.27;;;12.00;99.90;;;;;;4899394;29;20369;-78
2023/10/31 03:51:40;;;;;;;15.43;11.45;;;11.90;99.90;;;;;;4882104;29;20036;-78
2023/10/31 03:54:06;;;;;;;15.55;11.15;;;11.90;99.90;;;;;;4899324;29;20044;-78
2023/10/31 03:56:42;;;;;;;12.95;9.93;;;11.90;99.90;;;;;;4898795;29;20032;-78
2023/10/31 03:59:08;;;;;;;12.38;8.85;;;11.80;99.90;;;;;;4899086;29;20354;-78
2023/10/31 04:01:33;;;;;;;11.20;8.10;;;11.90;99.90;;;;;;4882153;29;20024;-78
2023/10/31 04:03:59;;;;;;;10.80;7.22;;;11.90;99.90;;;;;;4882236;29;20493;-79
2023/10/31 04:06:25;;;;;;;10.88;7.80;;;11.90;99.90;;;;;;4881900;29;20037;-78
2023/10/31 04:08:50;;;;;;;10.20;7.35;;;11.80;99.90;;;;;;4882677;29;20042;-77
2023/10/31 04:11:16;;;;;;;10.77;7.15;;;11.80;99.90;;;;;;4882342;29;20497;-77
2023/10/31 04:13:41;;;;;;;6.97;5.70;;;11.80;99.90;;;;;;4899212;29;20032;-77
2023/10/31 04:16:07;;;;;;;9.57;6.70;;;11.80;99.90;;;;;;4881900;29;20442;-78
2023/10/31 04:18:33;;;;;;;15.02;7.13;;;11.90;99.90;;;;;;4881813;29;20040;-77
2023/10/31 04:20:59;;;;;;;7.75;5.95;;;11.80;99.90;;;;;;4898472;29;20076;-78
2023/10/31 04:23:24;;;;;;;8.68;6.22;;;11.80;99.90;;;;;;4898633;29;20029;-78
2023/10/31 04:25:52;;;;;;;8.85;5.95;;;11.80;99.90;;;;;;4881624;29;20083;-78
2023/10/31 04:28:18;;;;;;;8.52;5.70;;;11.80;99.90;;;;;;4898168;29;20043;-78
2023/10/31 04:30:44;;;;;;;8.27;5.13;;;11.70;99.90;;;;;;4898064;29;20069;-78
2023/10/31 04:33:10;;;;;;;8.80;5.20;;;11.80;99.90;;;;;;4898700;29;20025;-78
2023/10/31 04:35:36;;;;;;;7.55;5.35;;;11.80;99.90;;;;;;4867212;29;20238;-78
2023/10/31 04:38:01;;;;;;;10.55;4.85;;;11.80;99.90;;;;;;4898157;29;20389;-77
2023/10/31 04:40:27;;;;;;;8.85;4.95;;;11.80;99.90;;;;;;4898297;29;20540;-78
2023/10/31 04:42:53;;;;;;;6.30;4.20;;;11.80;99.90;;;;;;4897979;29;20048;-78
2023/10/31 04:45:19;;;;;;;6.50;4.38;;;11.70;99.90;;;;;;4898259;29;20033;-78
2023/10/31 04:47:45;;;;;;;5.65;4.05;;;11.80;99.90;;;;;;4897410;29;20039;-78
2023/10/31 04:50:10;;;;;;;7.72;4.07;;;11.70;99.90;;;;;;4898259;29;20054;-78
2023/10/31 04:52:36;;;;;;;6.90;3.90;;;11.80;99.90;;;;;;4898249;29;20029;-77
2023/10/31 04:55:02;;;;;;;5.85;4.18;;;11.80;99.90;;;;;;4898374;29;20068;-78
2023/10/31 04:57:27;;;;;;;7.05;4.20;;;11.80;99.90;;;;;;4881311;29;20040;-77
2023/10/31 04:59:57;;;;;;;6.57;4.28;;;11.80;99.90;;;;;;4881258;29;20500;-77
2023/10/31 05:02:23;;;;;;;7.55;4.35;;;11.80;99.90;;;;;;4898052;29;20029;-78
2023/10/31 05:04:51;;;;;;;7.00;4.47;;;11.80;99.90;;;;;;4898133;29;20151;-77
2023/10/31 05:07:18;;;;;;;7.07;4.82;;;11.80;99.90;;;;;;4898211;29;20045;-77
2023/10/31 05:09:43;;;;;;;7.80;4.72;;;11.90;99.90;;;;;;4898101;29;20033;-77
2023/10/31 05:12:09;;;;;;;6.22;4.18;;;11.80;99.90;;;;;;4897733;29;20043;-77
2023/10/31 05:14:35;;;;;;;7.72;4.68;;;11.80;99.90;;;;;;4898307;29;20024;-78
2023/10/31 05:17:01;;;;;;;10.90;5.22;;;11.80;99.90;;;;;;4897960;29;20103;-78
2023/10/31 05:19:26;;;;;;;9.27;4.30;;;11.80;99.90;;;;;;4898047;29;20474;-78
2023/10/31 05:21:52;;;;;;;7.05;4.85;;;11.80;99.90;;;;;;4892116;29;20059;-77
2023/10/31 05:24:18;;;;;;;7.63;5.07;;;11.80;99.90;;;;;;4916575;29;20041;-78
2023/10/31 05:26:44;;;;;;;7.05;5.00;;;11.90;99.90;;;;;;4916702;29;20040;-77
2023/10/31 05:29:11;;;;;;;7.10;5.10;;;11.90;99.90;;;;;;4899751;29;20055;-78
2023/10/31 05:31:36;;;;;;;11.23;4.78;;;11.80;99.90;;;;;;4916996;29;20048;-77
2023/10/31 05:34:06;;;;;;;6.55;4.90;;;11.90;99.90;;;;;;4899637;29;20040;-78
2023/10/31 05:36:32;;;;;;;8.32;5.85;;;12.00;99.90;;;;;;4916214;29;20039;-77
2023/10/31 05:38:58;;;;;;;8.57;5.45;;;12.00;99.90;;;;;;4899403;29;20028;-78
2023/10/31 05:41:23;;;;;;;8.50;5.78;;;12.00;99.90;;;;;;4916411;29;20064;-78
2023/10/31 05:43:49;;;;;;;7.22;6.03;;;12.00;99.90;;;;;;4917037;29;20040;-78
2023/10/31 05:46:15;;;;;;;8.60;5.88;;;12.00;99.90;;;;;;4899338;29;20032;-78
2023/10/31 05:48:43;;;;;;;11.68;6.80;;;12.00;99.90;;;;;;4899812;29;20040;-78
2023/10/31 05:51:17;;;;;;;13.55;6.95;;;12.00;99.90;;;;;;4916241;29;20072;-77
2023/10/31 05:53:44;;;;;;;10.05;7.05;;;12.00;99.90;;;;;;4916144;29;20477;-77
2023/10/31 05:56:11;;;;;;;10.23;6.78;;;12.00;99.90;;;;;;4916112;29;20033;-77
2023/10/31 05:58:40;;;;;;;11.70;6.20;;;12.00;99.90;;;;;;4917148;29;20047;-76
2023/10/31 06:01:07;;;;;;;10.98;6.30;;;12.00;99.90;;;;;;4919819;29;20155;-76
2023/10/31 06:03:33;;;;;;;10.27;6.03;;;12.00;99.90;;;;;;4919765;29;20086;-77
2023/10/31 06:05:59;;;;;;;6.47;4.63;;;12.00;99.90;;;;;;4919636;29;20469;-77
2023/10/31 06:08:27;;;;;;;9.43;4.97;;;11.90;99.90;;;;;;4902817;29;20103;-77
2023/10/31 06:10:54;;;;;;;6.93;5.03;;;11.90;99.90;;;;;;4919928;29;20051;-78
2023/10/31 06:13:19;;;;;;;8.63;4.00;;;11.80;99.90;;;;;;4920149;29;20036;-76
2023/10/31 06:15:45;;;;;;;6.55;4.03;;;11.80;99.90;;;;;;4903008;29;20533;-78
2023/10/31 06:18:11;;;;;;;6.38;4.15;;;11.80;99.90;;;;;;4902791;29;20555;-77
2023/10/31 06:20:36;;;;;;;6.72;3.90;;;11.80;99.90;;;;;;4902602;29;20122;-78
2023/10/31 06:23:05;;;;;;;5.25;2.97;;;11.70;99.90;;;;;;4900532;29;20128;-78
2023/10/31 06:25:31;;;;;;;5.10;3.00;;;11.70;99.90;;;;;;4900659;29;20089;-77
2023/10/31 06:27:56;;;;;;;5.38;2.80;;;11.70;99.90;;;;;;4900944;29;20040;-78
2023/10/31 06:30:24;;;;;;;6.68;2.67;;;11.70;99.90;;;;;;4884043;29;20036;-78
2023/10/31 06:32:50;;;;;;;4.38;2.30;;;11.80;99.90;;;;;;4883643;29;20164;-77
2023/10/31 06:35:16;;;;;;;4.85;2.63;;;11.80;99.90;;;;;;4868246;29;20397;-77
2023/10/31 06:37:42;;;;;;;3.92;1.92;;;11.80;99.90;;;;;;4900366;29;20043;-78
2023/10/31 06:40:08;;;;;;;4.15;2.00;;;11.80;99.90;;;;;;4883402;29;20029;-78
2023/10/31 06:42:34;;;;;;;4.47;1.45;;;11.80;99.90;;;;;;4883640;29;20029;-77
2023/10/31 06:45:00;;;;;;;2.88;1.75;;;11.80;99.90;;;;;;4900293;29;20024;-79
2023/10/31 06:47:26;;;;;;;5.20;1.70;;;11.80;99.90;;;;;;4883569;29;20044;-77
2023/10/31 06:49:51;;;;;;;3.53;1.58;;;11.80;99.90;;;;;;4899995;29;20150;-77
2023/10/31 06:52:17;;;;;;;4.25;1.50;;;11.80;99.90;;;;;;4899875;29;20033;-78
2023/10/31 06:54:42;;;;;;;2.45;1.25;;;11.80;99.90;;;;;;4899949;29;20033;-77
2023/10/31 06:57:08;;;;;;;4.18;1.77;;;11.80;99.90;;;;;;4900262;29;20036;-76
2023/10/31 06:59:34;;;;;;;3.53;1.90;;;11.80;99.90;;;;;;4883647;29;20108;-76
2023/10/31 07:02:00;;;;;;;5.72;2.15;;;11.70;99.90;;;;;;4899652;29;20404;-77
2023/10/31 07:04:26;;;;;;;6.53;2.70;;;11.70;99.90;;;;;;4883552;29;20088;-77
2023/10/31 07:06:57;;;;;;;10.05;3.78;;;11.70;99.90;;;;;;4867809;29;20039;-77
2023/10/31 07:09:26;;;;;;;11.25;4.38;;;11.70;99.90;;;;;;4883721;29;20041;-78
2023/10/31 07:11:52;;;;;;;5.38;4.18;;;11.70;99.90;;;;;;4898949;29;20028;-77
2023/10/31 07:14:18;;;;;;;10.95;5.60;;;11.70;99.90;;;;;;4899526;29;20438;-76
2023/10/31 07:16:44;;;;;;;10.90;5.93;;;11.70;99.90;;;;;;4899387;29;20450;-77
2023/10/31 07:19:10;;;;;;;10.57;5.90;;;11.80;99.90;;;;;;4884408;29;20040;-77
2023/10/31 07:21:36;;;;;;;10.20;7.03;;;11.80;99.90;;;;;;4886700;29;20056;-77
2023/10/31 07:24:02;;;;;;;13.38;8.02;;;11.80;99.90;;;;;;4867021;29;20474;-76
2023/10/31 07:26:28;;;;;;;11.18;7.72;;;11.80;99.90;;;;;;4867375;29;20096;-79
2023/10/31 07:28:53;;;;;;;12.73;7.72;;;11.80;99.90;;;;;;4899534;29;20119;-77
2023/10/31 07:31:19;;;;;;;16.90;8.20;;;11.80;99.90;;;;;;4882477;29;20033;-77
2023/10/31 07:33:45;;;;;;;13.68;8.20;;;11.90;99.90;;;;;;4899456;29;20037;-77
2023/10/31 07:36:11;;;;;;;16.60;9.07;;;11.90;99.90;;;;;;4899162;29;20043;-77
2023/10/31 07:38:37;;;;;;;17.42;9.50;;;11.90;99.90;;;;;;4898953;29;20055;-77
2023/10/31 07:41:03;;;;;;;16.20;10.10;;;12.00;99.90;;;;;;4882100;29;20433;-77
2023/10/31 07:43:29;;;;;;;13.00;9.77;;;12.00;99.90;;;;;;4882661;29;20043;-78
2023/10/31 07:45:54;;;;;;;17.60;12.10;;;12.00;99.90;;;;;;4899092;29;20029;-78
2023/10/31 07:48:20;;;;;;;18.30;12.20;;;12.00;99.90;;;;;;4899092;29;20033;-78
2023/10/31 07:50:46;;;;;;;17.00;11.40;;;12.00;99.90;;;;;;4899097;29;20044;-78
2023/10/31 07:53:11;;;;;;;16.88;11.60;;;12.10;99.90;;;;;;4899045;29;20033;-78
2023/10/31 07:55:37;;;;;;;15.13;12.45;;;12.10;99.90;;;;;;4881966;29;20033;-78
2023/10/31 07:58:03;;;;;;;16.02;13.43;;;12.20;99.90;;;;;;4882171;29;20040;-78
2023/10/31 08:00:28;;;;;;;17.83;14.02;;;12.10;99.90;;;;;;4898628;29;20052;-77
2023/10/31 08:02:54;;;;;;;19.80;13.70;;;12.20;99.90;;;;;;4898795;29;20053;-77
2023/10/31 08:05:20;;;;;;;19.80;13.32;;;12.20;99.90;;;;;;4882096;29;20056;-78
2023/10/31 08:07:45;;;;;;;17.20;13.25;;;12.20;99.90;;;;;;4881806;29;20033;-78
2023/10/31 08:10:11;;;;;;;18.30;13.88;;;12.10;99.90;;;;;;4899066;29;20133;-78
2023/10/31 08:12:37;;;;;;;17.35;14.30;;;12.10;99.90;;;;;;4898837;29;20033;-78
2023/10/31 08:15:02;;;;;;;15.68;13.10;;;12.10;99.90;;;;;;4866335;29;20068;-77
2023/10/31 08:17:28;;;;;;;17.00;14.13;;;12.10;99.90;;;;;;4898527;29;20056;-77
2023/10/31 08:19:54;;;;;;;17.08;13.40;;;12.10;99.90;;;;;;4898561;29;20063;-77
2023/10/31 08:22:19;;;;;;;18.95;13.60;;;12.20;99.90;;;;;;4894243;29;20131;-76
2023/10/31 08:24:45;;;;;;;15.40;12.63;;;12.30;99.90;;;;;;4917403;29;20055;-77
2023/10/31 08:27:12;;;;;;;15.40;12.18;;;12.30;99.90;;;;;;4917145;29;20040;-76
2023/10/31 08:29:38;;;;;;;14.25;11.90;;;12.40;99.90;;;;;;4917293;29;20147;-76
2023/10/31 08:32:04;;;;;;;16.00;11.98;;;12.40;99.90;;;;;;4900927;29;20469;-77
2023/10/31 08:34:30;;;;;;;15.63;12.05;;;12.50;99.90;;;;;;4917200;29;20039;-77
2023/10/31 08:36:57;;;;;;;15.13;10.95;;;12.50;99.90;;;;;;4917116;29;20040;-76
2023/10/31 08:39:22;;;;;;;13.40;10.32;;;12.50;99.90;;;;;;4884293;29;20056;-76
2023/10/31 08:41:56;;;;;;;15.30;10.77;;;12.50;99.90;;;;;;4900041;29;20067;-76
2023/10/31 08:44:22;;;;;;;13.27;8.63;;;12.60;99.90;;;;;;4916820;29;20040;-77
2023/10/31 08:46:48;;;;;;;10.75;9.02;;;12.60;99.90;;;;;;4917039;29;20032;-77
2023/10/31 08:49:15;;;;;;;14.85;7.97;;;12.70;99.90;;;;;;4917146;29;20108;-75
2023/10/31 08:51:41;;;;;;;13.75;8.50;;;12.70;99.90;;;;;;4899645;29;20071;-76
2023/10/31 08:54:07;;;;;;;13.75;7.70;;;12.80;99.90;;;;;;4916767;29;20105;-77
2023/10/31 08:56:32;;;;;;;9.85;7.50;;;12.80;99.90;;;;;;4916878;29;20087;-77
2023/10/31 08:58:58;;;;;;;10.68;7.10;;;12.70;99.90;;;;;;4916969;29;20040;-78
2023/10/31 09:01:24;;;;;;;11.75;6.90;;;12.80;99.90;;;;;;4917167;29;20035;-76
2023/10/31 09:03:50;;;;;;;10.35;6.18;;;12.80;99.90;;;;;;4884462;29;20377;-76
2023/10/31 09:06:16;;;;;;;11.32;6.93;;;12.90;99.90;;;;;;4899539;29;20040;-76
2023/10/31 09:08:41;;;;;;;10.23;6.28;;;13.00;99.90;;;;;;4916900;29;20036;-76
2023/10/31 09:11:07;;;;;;;9.95;6.10;;;13.10;99.90;;;;;;4900582;29;20032;-76
2023/10/31 09:13:33;;;;;;;11.27;6.03;;;13.10;99.90;;;;;;4884214;29;20040;-76
2023/10/31 09:16:00;;;;;;;9.18;5.68;;;13.20;99.90;;;;;;4916784;29;20037;-76
2023/10/31 09:18:26;;;;;;;11.77;5.95;;;13.30;99.90;;;;;;4916614;29;20389;-76
2023/10/31 09:20:52;;;;;;;11.50;6.00;;;13.30;99.90;;;;;;4897811;29;20047;-76
2023/10/31 09:23:18;;;;;;;12.65;5.43;;;13.30;99.90;;;;;;4898543;29;20147;-77
2023/10/31 09:25:44;;;;;;;10.90;6.43;;;13.40;99.90;;;;;;4898187;29;20064;-77
2023/10/31 09:28:10;;;;;;;8.70;5.43;;;13.40;99.90;;;;;;4897482;29;20037;-77
2023/10/31 09:30:36;;;;;;;11.90;5.72;;;13.40;99.90;;;;;;4897692;29;20029;-77
2023/10/31 09:33:01;;;;;;;13.50;5.55;;;13.40;99.90;;;;;;4881004;29;20058;-77
2023/10/31 09:35:27;;;;;;;12.13;5.47;;;13.50;99.90;;;;;;4901395;29;20088;-77
2023/10/31 09:37:53;;;;;;;10.20;5.47;;;13.50;99.90;;;;;;4901508;29;20044;-78
2023/10/31 09:40:19;;;;;;;10.77;4.95;;;13.60;99.90;;;;;;4901550;29;20121;-76
2023/10/31 09:42:46;;;;;;;10.13;5.45;;;13.60;99.90;;;;;;4901099;29;20021;-75
2023/10/31 09:45:13;;;;;;;9.52;4.85;;;13.70;99.90;;;;;;4900921;29;20504;-76
2023/10/31 09:47:39;;;;;;;12.50;6.95;;;13.80;99.90;;;;;;4868453;29;20048;-76
2023/10/31 09:50:06;;;;;;;11.38;6.10;;;13.80;99.90;;;;;;4901344;29;20033;-75
2023/10/31 09:52:32;;;;;;;8.93;6.20;;;13.90;99.90;;;;;;4884055;29;20339;-76
2023/10/31 09:54:59;;;;;;;11.30;6.28;;;14.00;99.90;;;;;;4901136;29;20032;-77
2023/10/31 09:57:26;;;;;;;8.63;5.68;;;14.00;99.90;;;;;;4884119;29;20037;-77
2023/10/31 09:59:52;;;;;;;10.02;6.22;;;14.20;99.90;;;;;;4900748;29;20043;-77
2023/10/31 10:02:17;;;;;;;12.95;7.70;;;14.30;99.90;;;;;;4884073;29;20040;-77
2023/10/31 10:04:43;;;;;;;12.00;7.10;;;14.30;99.90;;;;;;4900835;29;20391;-77
2023/10/31 10:07:16;;;;;;;11.07;5.97;;;14.40;99.90;;;;;;4900605;29;20032;-77
2023/10/31 10:09:42;;;;;;;;;;;14.40;99.90;;;;;;4901239;29;20029;-77
2023/10/31 10:12:11;;;;;;;11.95;7.15;;;14.40;99.90;;;;;;4901320;29;19954;-77
2023/10/31 10:14:38;;;;;;;12.77;5.90;;;14.50;99.90;;;;;;4900709;29;20027;-77
2023/10/31 10:17:21;;;;;;;9.68;6.47;;;14.60;99.90;;;;;;4884178;29;20045;-76
2023/10/31 10:19:47;;;;;;;10.23;6.60;;;14.70;99.90;;;;;;4900654;29;20120;-77
2023/10/31 10:22:14;;;;;;;9.80;6.45;;;14.80;99.90;;;;;;4902516;29;20128;-77
2023/10/31 10:24:41;;;;;;;12.45;6.40;;;14.80;99.90;;;;;;4900551;29;20490;-77
2023/10/31 10:27:10;;;;;;;12.95;6.65;;;14.80;99.90;;;;;;4900655;29;20430;-77
2023/10/31 10:29:38;;;;;;;10.07;5.28;;;14.70;99.90;;;;;;4901078;29;20128;-77
2023/10/31 10:32:08;;;;;;;10.18;6.25;;;14.70;99.90;;;;;;4900738;29;20025;-76
2023/10/31 10:34:35;;;;;;;10.13;5.00;;;14.60;99.90;;;;;;4900117;29;20538;-77
2023/10/31 10:37:04;;;;;;;8.65;4.50;;;14.50;99.90;;;;;;4899968;29;20067;-77
2023/10/31 10:39:33;;;;;;;9.23;4.10;;;14.40;99.90;;;;;;4883486;29;20055;-77
2023/10/31 10:42:01;;;;;;;9.55;4.10;;;14.30;99.90;;;;;;4900272;29;20029;-77
2023/10/31 10:44:35;;;;;;;8.32;4.53;;;14.20;99.90;;;;;;4883810;29;20057;-78
2023/10/31 10:47:06;;;;;;;11.50;4.43;;;14.30;99.90;;;;;;4882358;29;20072;-77
2023/10/31 10:49:35;;;;;;;8.83;4.93;;;14.30;99.90;;;;;;4899837;29;20089;-76
2023/10/31 10:52:27;;;;;;;9.30;4.28;;;14.30;99.90;;;;;;4899907;29;20768;-79
2023/10/31 10:55:12;;;;;;;10.35;4.80;;;14.30;99.90;;;;;;4901180;29;20032;-78
2023/10/31 10:57:42;;;;;;;10.05;3.85;;;14.40;99.90;;;;;;4899624;29;20033;-78
2023/10/31 11:00:10;;;;;;;11.63;3.90;;;14.40;99.90;;;;;;4900360;29;20029;-79
2023/10/31 11:02:46;;;;;;;11.00;3.40;;;14.40;99.90;;;;;;4900438;29;20037;-78
2023/10/31 11:05:13;;;;;;;10.30;4.95;;;14.40;99.90;;;;;;4899386;29;20029;-78
2023/10/31 11:07:40;;;;;;;9.77;4.50;;;14.40;99.90;;;;;;4899804;29;20108;-78
2023/10/31 11:10:07;;;;;;;9.18;4.35;;;14.40;99.90;;;;;;4883409;29;20044;-79
2023/10/31 11:12:33;;;;;;;6.60;4.15;;;14.40;99.90;;;;;;4900161;29;20036;-79
2023/10/31 11:15:00;;;;;;;8.07;4.35;;;14.30;99.90;;;;;;4883004;29;20483;-78
2023/10/31 11:17:34;;;;;;;9.18;4.50;;;14.30;99.90;;;;;;4899671;29;20036;-78
2023/10/31 11:20:00;;;;;;;11.32;5.30;;;14.30;99.90;;;;;;4899879;29;20066;-80
2023/10/31 11:22:36;;;;;;;9.15;5.57;;;14.30;99.90;;;;;;4900193;29;20072;-80
2023/10/31 11:25:02;;;;;;;11.40;5.82;;;14.30;99.90;;;;;;4884025;29;20464;-81
2023/10/31 11:27:28;;;;;;;10.80;6.65;;;14.30;99.90;;;;;;4900803;29;20028;-81
2023/10/31 11:29:55;;;;;;;9.60;6.82;;;14.30;99.90;;;;;;4900251;29;20442;-81
2023/10/31 11:32:22;;;;;;;16.35;9.38;;;14.30;99.90;;;;;;4899733;29;20025;-81
2023/10/31 11:34:47;;;;;;;14.55;9.63;;;14.30;99.90;;;;;;4900037;29;20441;-81
2023/10/31 11:37:24;;;;;;;14.90;10.60;;;14.30;99.90;;;;;;4884291;29;20041;-81
2023/10/31 11:40:22;;;;;;;18.58;11.63;;;14.40;99.90;;;;;;4902070;29;20449;-82
2023/10/31 11:42:50;;;;;;;15.18;11.57;;;14.50;99.90;;;;;;4902544;29;20111;-82
2023/10/31 11:45:40;;;;;;;17.40;12.55;;;14.60;99.90;;;;;;4883545;29;20040;-80
2023/10/31 11:48:06;;;;;;;15.60;12.65;;;14.60;99.90;;;;;;4899487;29;20032;-79
2023/10/31 11:50:33;;;;;;;17.60;12.07;;;14.60;99.90;;;;;;4883269;29;20435;-79
2023/10/31 11:53:06;;;;;;;17.30;13.15;;;14.60;99.90;;;;;;4867083;29;20032;-80
2023/10/31 11:55:36;;;;;;;19.70;14.48;;;14.60;99.90;;;;;;4899145;29;20045;-80
2023/10/31 11:58:32;;;;;;;20.48;14.70;;;14.70;99.90;;;;;;4899239;29;20033;-81
2023/10/31 12:01:05;;;;;;;21.45;16.20;;;14.80;99.90;;;;;;4883026;29;20044;-80
2023/10/31 12:03:41;;;;;;;21.58;15.00;;;14.90;99.90;;;;;;4899740;29;20054;-80
2023/10/31 12:06:08;;;;;;;20.27;14.63;;;14.90;99.90;;;;;;4899981;29;20111;-80
2023/10/31 12:08:39;;;;;;;20.00;15.27;;;15.00;99.90;;;;;;4899888;29;20037;-81
2023/10/31 12:11:23;;;;;;;20.88;14.60;;;15.10;99.90;;;;;;4882232;29;20036;-79
2023/10/31 12:14:06;;;;;;;23.17;14.63;;;15.10;99.90;;;;;;4899160;29;20029;-80
2023/10/31 12:16:32;;;;;;;;;;;15.20;99.90;;;;;;4898910;29;20065;-81
2023/10/31 12:18:59;;;;;;;20.98;14.27;;;15.20;99.90;;;;;;4898877;29;19994;-81
2023/10/31 12:21:39;;;;;;;19.27;13.80;;;15.30;99.90;;;;;;4885589;29;20064;-81
2023/10/31 12:24:06;;;;;;;19.52;12.55;;;15.20;99.90;;;;;;4917942;29;20028;-81
2023/10/31 12:26:35;;;;;;;18.63;12.63;;;15.10;99.90;;;;;;4917850;29;20036;-79
2023/10/31 12:29:14;;;;;;;20.63;13.60;;;15.10;99.90;;;;;;4917689;29;20060;-79
2023/10/31 12:31:53;;;;;;;24.52;13.60;;;15.00;99.90;;;;;;4900823;29;20036;-79
2023/10/31 12:34:21;;;;;;;27.13;14.70;;;14.90;99.90;;;;;;4901041;29;20032;-80
2023/10/31 12:36:49;;;;;;;22.30;13.80;;;14.80;99.90;;;;;;4917312;29;20051;-80